Time;durP1;ratioP1;P1;durP2;ratioP2;P2;SDS_P1;SDS_P2;PMS_P1;PMS_P2;Temp;Humidity;BMP_temperature;BMP_pressure;BME280_temperature;BME280_humidity;BME280_pressure;Samples;Min_cycle;Max_cycle;Signal;HPM_P1;HPM_P2
2023/03/06 00:00:23;;;;;;;7.10;3.42;;;;;;;2.37;100.00;100729.19;5119034;27;20381;-53
2023/03/06 00:02:52;;;;;;;6.57;2.75;;;;;;;2.37;100.00;100726.59;5125461;27;20053;-53
2023/03/06 00:05:20;;;;;;;7.35;3.00;;;;;;;2.34;100.00;100724.94;5120445;27;20478;-52
2023/03/06 00:07:48;;;;;;;5.43;2.70;;;;;;;2.30;100.00;100717.31;5122534;27;20468;-50
2023/03/06 00:10:19;;;;;;;7.68;2.95;;;;;;;2.26;100.00;100708.78;5120760;27;20043;-54
2023/03/06 00:12:48;;;;;;;6.63;2.83;;;;;;;2.24;100.00;100717.53;5126860;27;20464;-51
2023/03/06 00:15:16;;;;;;;6.50;2.80;;;;;;;2.17;100.00;100717.72;5125202;27;20101;-52
2023/03/06 00:17:44;;;;;;;7.15;2.78;;;;;;;2.15;100.00;100716.06;5127045;27;20133;-51
2023/03/06 00:20:13;;;;;;;6.78;2.63;;;;;;;2.12;100.00;100714.44;5126727;27;20065;-52
2023/03/06 00:22:42;;;;;;;7.03;3.17;;;;;;;2.14;100.00;100709.19;5124122;27;20080;-49
2023/03/06 00:25:14;;;;;;;5.97;3.25;;;;;;;2.10;100.00;100711.03;5120299;27;20038;-50
2023/03/06 00:27:47;;;;;;;7.68;3.40;;;;;;;2.12;100.00;100714.44;5120328;27;20043;-49
2023/03/06 00:30:18;;;;;;;8.20;3.15;;;;;;;2.09;100.00;100703.31;5121336;27;20521;-48
2023/03/06 00:32:46;;;;;;;6.10;3.20;;;;;;;2.02;100.00;100702.66;5127257;27;20047;-49
2023/03/06 00:35:15;;;;;;;7.15;3.20;;;;;;;2.04;100.00;100706.03;5124305;27;20044;-49
2023/03/06 00:37:43;;;;;;;6.18;2.97;;;;;;;1.96;100.00;100703.69;5121238;27;20154;-49
2023/03/06 00:40:14;;;;;;;6.00;2.95;;;;;;;1.88;100.00;100700.47;5119675;27;20047;-48
2023/03/06 00:42:42;;;;;;;7.28;2.90;;;;;;;1.83;100.00;100698.03;5122288;27;20093;-51
2023/03/06 00:45:12;;;;;;;7.65;3.40;;;;;;;1.81;100.00;100692.06;5125497;27;20031;-47
2023/03/06 00:47:41;;;;;;;7.78;3.17;;;;;;;1.78;100.00;100680.94;5128064;27;20047;-48
2023/03/06 00:50:10;;;;;;;8.00;3.20;;;;;;;1.80;100.00;100686.91;5120603;27;20130;-52
2023/03/06 00:52:40;;;;;;;8.15;2.92;;;;;;;1.68;100.00;100683.81;5123278;27;20039;-49
2023/03/06 00:55:09;;;;;;;10.68;3.53;;;;;;;1.70;100.00;100675.97;5126827;27;20542;-48
2023/03/06 00:57:40;;;;;;;7.93;3.42;;;;;;;1.74;100.00;100677.56;5125365;27;20054;-49
2023/03/06 01:00:10;;;;;;;6.63;3.20;;;;;;;1.75;100.00;100674.09;5125650;27;20070;-48
2023/03/06 01:02:40;;;;;;;6.18;3.45;;;;;;;1.64;100.00;100676.19;5123313;27;20058;-50
2023/03/06 01:05:09;;;;;;;8.43;3.72;;;;;;;1.58;100.00;100666.84;5123495;27;20121;-49
2023/03/06 01:07:37;;;;;;;8.90;3.58;;;;;;;1.55;100.00;100666.06;5126930;27;20050;-47
2023/03/06 01:10:07;;;;;;;8.60;3.70;;;;;;;1.49;100.00;100667.97;5124285;27;20118;-49
2023/03/06 01:12:35;;;;;;;8.30;3.75;;;;;;;1.54;100.00;100666.97;5120769;27;20066;-50
2023/03/06 01:15:04;;;;;;;8.70;3.67;;;;;;;1.55;100.00;100663.50;5120726;27;20035;-47
2023/03/06 01:17:32;;;;;;;13.32;4.05;;;;;;;1.48;100.00;100660.22;5122050;27;20055;-49
2023/03/06 01:20:02;;;;;;;7.85;3.83;;;;;;;1.39;100.00;100656.19;5118336;27;20042;-52
2023/03/06 01:22:30;;;;;;;8.20;4.10;;;;;;;1.35;100.00;100646.81;5123745;27;20043;-53
2023/03/06 01:24:58;;;;;;;8.40;3.83;;;;;;;1.36;100.00;100640.69;5124820;27;20490;-52
2023/03/06 01:27:29;;;;;;;7.68;4.20;;;;;;;1.34;100.00;100632.16;5123571;27;20096;-50
2023/03/06 01:29:57;;;;;;;9.05;4.05;;;;;;;1.33;100.00;100623.50;5119317;27;20081;-53
2023/03/06 01:32:25;;;;;;;10.30;3.97;;;;;;;1.34;100.00;100621.78;5116467;27;20573;-49
2023/03/06 01:34:53;;;;;;;10.40;4.40;;;;;;;1.32;100.00;100631.31;5120415;27;20539;-48
2023/03/06 01:37:23;;;;;;;11.38;4.25;;;;;;;1.32;100.00;100627.00;5125379;27;20100;-49
2023/03/06 01:39:51;;;;;;;9.00;4.30;;;;;;;1.22;100.00;100622.97;5123991;27;20814;-49
2023/03/06 01:42:19;;;;;;;8.65;4.38;;;;;;;1.28;100.00;100622.81;5124127;27;20038;-48
2023/03/06 01:45:02;;;;;;;9.00;4.28;;;;;;;1.22;100.00;100619.56;5126661;27;20473;-47
2023/03/06 01:47:30;;;;;;;6.70;3.60;;;;;;;1.17;100.00;100622.25;5120804;28;20056;-51
2023/03/06 01:50:00;;;;;;;8.68;4.30;;;;;;;1.21;100.00;100616.09;5122174;28;20052;-49
2023/03/06 01:52:36;;;;;;;9.55;4.78;;;;;;;1.23;100.00;100608.28;5121173;28;20378;-51
2023/03/06 01:55:05;;;;;;;;;;;;;;;1.24;100.00;100605.66;5122632;28;20039;-51
2023/03/06 01:57:37;;;;;;;10.95;4.07;;;;;;;1.25;100.00;100602.16;5127877;27;20434;-50
2023/03/06 02:00:09;;;;;;;7.45;3.88;;;;;;;1.25;100.00;100598.72;5124559;28;20104;-51
2023/03/06 02:02:38;;;;;;;9.77;4.20;;;;;;;1.21;100.00;100605.72;5127267;27;20050;-50
2023/03/06 02:05:09;;;;;;;11.45;4.43;;;;;;;1.20;100.00;100598.88;5121746;28;20027;-50
2023/03/06 02:07:43;;;;;;;10.57;4.53;;;;;;;1.18;100.00;100609.25;5121506;28;20110;-50
2023/03/06 02:10:12;;;;;;;8.95;4.72;;;;;;;1.19;100.00;100597.19;5119201;28;20088;-50
2023/03/06 02:12:42;;;;;;;8.50;5.03;;;;;;;1.12;100.00;100603.44;5112201;27;20047;-48
2023/03/06 02:15:11;;;;;;;9.95;5.28;;;;;;;1.10;100.00;100603.47;5121417;28;20039;-49
2023/03/06 02:17:41;;;;;;;12.27;6.32;;;;;;;1.09;100.00;100604.38;5119721;27;20047;-52
2023/03/06 02:20:13;;;;;;;13.50;6.70;;;;;;;1.03;100.00;100606.31;5118016;27;20071;-50
2023/03/06 02:22:54;;;;;;;11.70;6.75;;;;;;;1.05;100.00;100599.31;5129536;27;20051;-49
2023/03/06 02:25:32;;;;;;;11.68;7.60;;;;;;;1.04;100.00;100598.47;5127349;27;20092;-48
2023/03/06 02:28:00;;;;;;;14.57;8.50;;;;;;;0.96;100.00;100598.69;5128542;27;20521;-47
2023/03/06 02:30:29;;;;;;;15.77;9.73;;;;;;;0.96;100.00;100592.69;5126328;27;20133;-50
2023/03/06 02:32:58;;;;;;;14.63;9.30;;;;;;;0.93;100.00;100597.94;5128411;27;20100;-50
2023/03/06 02:35:28;;;;;;;15.73;11.07;;;;;;;0.93;100.00;100593.63;5127349;27;20055;-50
2023/03/06 02:37:59;;;;;;;17.83;10.90;;;;;;;0.93;100.00;100595.38;5126809;27;20529;-51
2023/03/06 02:40:29;;;;;;;19.15;10.48;;;;;;;0.91;100.00;100589.38;5126597;27;20370;-51
2023/03/06 02:42:58;;;;;;;18.33;11.85;;;;;;;0.92;100.00;100591.06;5131165;27;21265;-52
2023/03/06 02:45:33;;;;;;;19.33;11.82;;;;;;;0.93;100.00;100587.59;5125545;27;20062;-51
2023/03/06 02:48:02;;;;;;;19.77;12.50;;;;;;;0.91;100.00;100579.84;5126154;27;20046;-53
2023/03/06 02:50:30;;;;;;;21.95;12.95;;;;;;;0.91;100.00;100576.41;5126279;27;20110;-51
2023/03/06 02:53:01;;;;;;;22.17;13.38;;;;;;;0.93;100.00;100569.47;5125868;27;20047;-51
2023/03/06 02:55:31;;;;;;;27.20;15.55;;;;;;;0.87;100.00;100564.44;5129051;27;20167;-50
2023/03/06 02:57:59;;;;;;;23.33;14.02;;;;;;;0.89;100.00;100565.28;5125646;27;20046;-50
2023/03/06 03:00:29;;;;;;;23.42;14.77;;;;;;;0.88;100.00;100561.81;5126324;27;20137;-53
2023/03/06 03:02:57;;;;;;;28.13;16.25;;;;;;;0.90;100.00;100554.00;5122948;27;20496;-49
2023/03/06 03:05:25;;;;;;;24.42;14.65;;;;;;;0.95;100.00;100558.13;5117610;27;20116;-50
2023/03/06 03:07:53;;;;;;;25.27;15.48;;;;;;;0.93;100.00;100539.22;5127555;27;20859;-49
2023/03/06 03:10:22;;;;;;;25.70;14.93;;;;;;;0.95;100.00;100541.75;5123390;27;20036;-52
2023/03/06 03:12:52;;;;;;;24.77;15.30;;;;;;;0.96;100.00;100538.28;5125590;27;20043;-50
2023/03/06 03:15:21;;;;;;;25.77;15.38;;;;;;;0.94;100.00;100534.88;5127984;27;20101;-53
2023/03/06 03:17:49;;;;;;;27.38;14.95;;;;;;;0.94;100.00;100534.88;5119038;27;20067;-50
2023/03/06 03:20:19;;;;;;;28.13;15.10;;;;;;;0.97;100.00;100534.81;5120223;27;20043;-50
2023/03/06 03:22:48;;;;;;;24.60;15.68;;;;;;;1.00;100.00;100532.13;5123523;27;20051;-53
2023/03/06 03:25:17;;;;;;;29.13;15.43;;;;;;;0.99;100.00;100528.66;5127775;27;20071;-48
2023/03/06 03:27:45;;;;;;;24.02;15.27;;;;;;;1.01;100.00;100528.66;5127350;27;20146;-50
2023/03/06 03:30:16;;;;;;;27.90;15.98;;;;;;;0.99;100.00;100520.91;5125168;27;20132;-50
2023/03/06 03:32:44;;;;;;;26.85;15.75;;;;;;;1.02;100.00;100512.19;5121621;27;20035;-52
2023/03/06 03:35:12;;;;;;;24.88;15.13;;;;;;;1.02;100.00;100512.19;5126562;27;20039;-49
2023/03/06 03:37:40;;;;;;;27.38;16.17;;;;;;;1.04;100.00;100510.41;5124972;27;20031;-50
2023/03/06 03:40:10;;;;;;;25.38;15.45;;;;;;;1.05;100.00;100512.13;5123509;27;20057;-49
2023/03/06 03:42:38;;;;;;;26.02;15.65;;;;;;;1.10;100.00;100502.44;5119873;27;20059;-50
2023/03/06 03:45:07;;;;;;;21.48;14.23;;;;;;;1.07;100.00;100494.78;5127244;27;20092;-50
2023/03/06 03:47:37;;;;;;;24.75;14.82;;;;;;;1.08;100.00;100491.28;5125641;27;20042;-48
2023/03/06 03:50:06;;;;;;;24.92;14.23;;;;;;;1.10;100.00;100489.47;5126179;27;20047;-50
2023/03/06 03:52:34;;;;;;;22.88;14.73;;;;;;;1.06;100.00;100493.06;5129099;27;20043;-49
2023/03/06 03:55:02;;;;;;;22.02;14.20;;;;;;;1.06;100.00;100495.66;5129409;27;20037;-52
2023/03/06 03:57:30;;;;;;;21.92;13.80;;;;;;;1.07;100.00;100493.94;5124397;27;20147;-51
2023/03/06 04:00:03;;;;;;;21.48;12.98;;;;;;;1.10;100.00;100486.06;5122827;27;20042;-50
2023/03/06 04:02:32;;;;;;;21.27;13.65;;;;;;;1.09;100.00;100487.81;5122289;27;20047;-53
2023/03/06 04:05:01;;;;;;;19.92;13.15;;;;;;;1.09;100.00;100484.34;5128954;27;20061;-46
2023/03/06 04:07:29;;;;;;;22.20;13.05;;;;;;;1.12;100.00;100482.53;5120902;27;20039;-53
2023/03/06 04:09:57;;;;;;;23.25;13.82;;;;;;;1.12;100.00;100477.34;5125792;27;20043;-49
2023/03/06 04:12:25;;;;;;;21.17;12.52;;;;;;;1.10;100.00;100478.28;5125956;27;20486;-53
2023/03/06 04:14:53;;;;;;;19.98;12.15;;;;;;;1.12;100.00;100479.09;5126514;27;20497;-51
2023/03/06 04:17:24;;;;;;;20.35;12.50;;;;;;;1.10;100.00;100473.94;5129507;27;20047;-52
2023/03/06 04:19:53;;;;;;;19.58;12.38;;;;;;;1.08;100.00;100470.56;5126997;27;20073;-50
2023/03/06 04:22:22;;;;;;;22.33;12.02;;;;;;;1.06;100.00;100467.16;5124969;27;20100;-52
2023/03/06 04:24:50;;;;;;;21.70;12.15;;;;;;;1.11;100.00;100459.28;5121577;27;20600;-51
2023/03/06 04:27:18;;;;;;;19.90;11.90;;;;;;;1.11;100.00;100461.84;5121793;27;20063;-52
2023/03/06 04:29:46;;;;;;;19.42;12.30;;;;;;;1.10;100.00;100468.75;5127057;27;20487;-52
2023/03/06 04:32:15;;;;;;;21.13;12.23;;;;;;;1.08;100.00;100455.03;5121649;27;20352;-50
2023/03/06 04:34:43;;;;;;;19.02;11.00;;;;;;;1.09;100.00;100458.44;5119612;27;20043;-51
2023/03/06 04:37:19;;;;;;;18.90;12.57;;;;;;;1.11;100.00;100462.69;5123355;27;20096;-49
2023/03/06 04:39:52;;;;;;;22.48;11.25;;;;;;;1.07;100.00;100452.50;5121142;27;20031;-49
2023/03/06 04:42:20;;;;;;;19.70;12.05;;;;;;;1.13;100.00;100452.28;5126634;27;20051;-47
2023/03/06 04:44:48;;;;;;;19.45;11.98;;;;;;;1.13;100.00;100457.47;5123570;27;20058;-50
2023/03/06 04:47:16;;;;;;;17.23;11.25;;;;;;;1.11;100.00;100451.50;5121254;27;20482;-50
2023/03/06 04:49:46;;;;;;;20.05;11.18;;;;;;;1.13;100.00;100447.97;5123692;27;20035;-50
2023/03/06 04:52:14;;;;;;;19.75;11.77;;;;;;;1.14;100.00;100441.03;5123094;27;20110;-49
2023/03/06 04:54:42;;;;;;;17.40;10.98;;;;;;;1.15;100.00;100437.56;5126018;27;20121;-48
2023/03/06 04:57:15;;;;;;;17.90;11.48;;;;;;;1.15;100.00;100440.97;5125264;27;20040;-48
2023/03/06 04:59:43;;;;;;;18.20;11.15;;;;;;;1.14;100.00;100439.28;5122964;27;20031;-48
2023/03/06 05:02:11;;;;;;;20.02;10.93;;;;;;;1.16;100.00;100440.09;5118158;27;20409;-47
2023/03/06 05:04:39;;;;;;;20.45;11.93;;;;;;;1.14;100.00;100439.28;5119272;27;20104;-51
2023/03/06 05:07:07;;;;;;;18.83;11.57;;;;;;;1.12;100.00;100438.50;5117140;27;20039;-51
2023/03/06 05:09:36;;;;;;;20.65;11.35;;;;;;;1.09;100.00;100443.78;5118129;27;20043;-50
2023/03/06 05:12:06;;;;;;;19.77;11.32;;;;;;;1.12;100.00;100435.91;5117013;27;20110;-49
2023/03/06 05:14:35;;;;;;;21.05;10.93;;;;;;;1.14;100.00;100430.66;5122107;27;20052;-58
2023/03/06 05:17:04;;;;;;;19.50;11.25;;;;;;;1.14;100.00;100430.66;5120702;27;20075;-58
2023/03/06 05:19:32;;;;;;;19.40;11.25;;;;;;;1.18;100.00;100425.31;5127085;27;20473;-58
2023/03/06 05:22:00;;;;;;;18.98;11.40;;;;;;;1.21;100.00;100423.53;5119300;27;20389;-58
2023/03/06 05:24:28;;;;;;;23.58;12.65;;;;;;;1.20;100.00;100422.72;5124728;27;20071;-59
2023/03/06 05:26:56;;;;;;;23.88;12.75;;;;;;;1.20;100.00;100422.72;5120560;27;20036;-58
2023/03/06 05:29:24;;;;;;;18.67;11.02;;;;;;;1.19;100.00;100413.25;5119446;27;20103;-58
2023/03/06 05:31:54;;;;;;;19.38;11.30;;;;;;;1.20;100.00;100419.25;5118441;27;20588;-58
2023/03/06 05:34:22;;;;;;;19.90;10.43;;;;;;;1.22;100.00;100409.69;5124048;27;20038;-58
2023/03/06 05:36:50;;;;;;;19.63;10.88;;;;;;;1.23;100.00;100419.16;5126950;27;20050;-58
2023/03/06 05:39:19;;;;;;;22.48;11.02;;;;;;;1.21;100.00;100414.00;5122315;27;20044;-58
2023/03/06 05:41:47;;;;;;;20.83;11.15;;;;;;;1.22;100.00;100414.88;5122227;28;20031;-58
2023/03/06 05:44:15;;;;;;;19.80;10.68;;;;;;;1.29;100.00;100406.00;5124931;27;20118;-58
2023/03/06 05:46:43;;;;;;;17.08;9.98;;;;;;;1.31;100.00;100406.78;5121049;27;20039;-59
2023/03/06 05:49:13;;;;;;;18.40;9.77;;;;;;;1.32;100.00;100406.75;5121339;27;20405;-59
2023/03/06 05:51:41;;;;;;;21.75;11.68;;;;;;;1.34;100.00;100397.16;5120069;28;20114;-59
2023/03/06 05:54:09;;;;;;;18.73;10.60;;;;;;;1.39;100.00;100402.22;5115026;27;20047;-59
2023/03/06 05:56:37;;;;;;;17.63;10.35;;;;;;;1.39;100.00;100393.56;5121805;27;20038;-59
2023/03/06 05:59:05;;;;;;;19.40;10.15;;;;;;;1.37;100.00;100391.03;5122989;27;20043;-59
2023/03/06 06:01:33;;;;;;;18.75;10.02;;;;;;;1.42;100.00;100391.72;5114862;27;20120;-56
2023/03/06 06:04:05;;;;;;;19.38;10.15;;;;;;;1.39;100.00;100389.25;5122270;27;20479;-59
2023/03/06 06:06:34;;;;;;;18.23;10.27;;;;;;;1.36;100.00;100391.94;5131851;27;20047;-58
2023/03/06 06:09:02;;;;;;;18.30;9.57;;;;;;;1.41;100.00;100395.22;5126740;27;20554;-59
2023/03/06 06:11:30;;;;;;;17.25;9.27;;;;;;;1.43;100.00;100398.63;5124411;27;20040;-59
2023/03/06 06:13:58;;;;;;;18.77;9.93;;;;;;;1.44;100.00;100396.84;5126245;27;20051;-58
2023/03/06 06:16:26;;;;;;;17.58;9.70;;;;;;;1.45;100.00;100394.22;5131382;27;20051;-58
2023/03/06 06:18:54;;;;;;;18.63;9.88;;;;;;;1.45;100.00;100396.81;5127476;27;20120;-59
2023/03/06 06:21:23;;;;;;;17.52;9.45;;;;;;;1.49;100.00;100389.78;5125921;27;20036;-59
2023/03/06 06:23:52;;;;;;;15.80;9.13;;;;;;;1.51;100.00;100388.84;5127376;27;20091;-59
2023/03/06 06:26:20;;;;;;;16.23;9.70;;;;;;;1.48;100.00;100388.91;5129830;27;20043;-59
2023/03/06 06:28:48;;;;;;;18.60;9.27;;;;;;;1.50;100.00;100388.84;5124650;27;20085;-59
2023/03/06 06:31:16;;;;;;;17.27;8.80;;;;;;;1.52;100.00;100395.69;5130760;27;20047;-57
2023/03/06 06:33:44;;;;;;;17.17;8.70;;;;;;;1.53;100.00;100399.16;5124019;27;20122;-59
2023/03/06 06:36:18;;;;;;;15.93;8.68;;;;;;;1.59;100.00;100387.72;5125019;27;20520;-57
2023/03/06 06:38:46;;;;;;;16.50;9.20;;;;;;;1.55;100.00;100391.31;5123192;27;20027;-57
2023/03/06 06:41:15;;;;;;;14.48;8.25;;;;;;;1.56;100.00;100387.81;5124362;27;20065;-59
2023/03/06 06:44:06;;;;;;;16.48;8.52;;;;;;;1.55;100.00;100391.31;5121800;27;20114;-59
2023/03/06 06:46:36;;;;;;;18.05;8.95;;;;;;;1.57;100.00;100397.28;5126093;27;20078;-59
2023/03/06 06:49:24;;;;;;;14.70;7.75;;;;;;;1.56;100.00;100391.25;5127318;27;20096;-57
2023/03/06 06:51:52;;;;;;;17.23;8.23;;;;;;;1.62;100.00;100393.66;5125070;27;20040;-59
2023/03/06 06:54:21;;;;;;;14.35;8.63;;;;;;;1.60;100.00;100398.03;5131833;27;20497;-59
2023/03/06 06:56:53;;;;;;;15.70;8.20;;;;;;;1.62;100.00;100392.78;5122962;27;20071;-58
2023/03/06 06:59:22;;;;;;;14.82;8.25;;;;;;;1.63;100.00;100394.47;5122803;27;20061;-59
2023/03/06 07:01:50;;;;;;;15.82;8.38;;;;;;;1.66;100.00;100399.53;5125577;27;20031;-59
2023/03/06 07:04:19;;;;;;;15.38;8.20;;;;;;;1.67;100.00;100394.31;5129339;27;20035;-59
2023/03/06 07:06:48;;;;;;;15.35;8.75;;;;;;;1.64;100.00;100401.34;5123705;27;20039;-59
2023/03/06 07:09:16;;;;;;;13.88;8.65;;;;;;;1.73;100.00;100401.00;5126167;27;20042;-59
2023/03/06 07:11:44;;;;;;;14.25;9.02;;;;;;;1.72;100.00;100404.53;5121016;27;20818;-58
2023/03/06 07:14:13;;;;;;;14.98;8.45;;;;;;;1.75;100.00;100407.00;5127861;27;20058;-59
2023/03/06 07:16:41;;;;;;;13.73;7.95;;;;;;;1.77;100.00;100415.59;5121480;27;20542;-58
2023/03/06 07:19:12;;;;;;;13.07;7.55;;;;;;;1.80;100.00;100405.09;5126523;27;20361;-59
2023/03/06 07:21:40;;;;;;;12.65;7.80;;;;;;;1.82;100.00;100405.03;5121871;27;20558;-59
2023/03/06 07:24:08;;;;;;;14.20;7.70;;;;;;;1.91;100.00;100409.03;5125794;27;20537;-59
2023/03/06 07:26:36;;;;;;;14.57;7.50;;;;;;;1.86;100.00;100404.03;5127910;27;20042;-59
2023/03/06 07:29:05;;;;;;;11.65;7.55;;;;;;;1.93;100.00;100408.09;5127510;27;20031;-58
2023/03/06 07:31:34;;;;;;;13.73;7.45;;;;;;;1.95;100.00;100411.50;5125362;27;20051;-59
2023/03/06 07:34:04;;;;;;;13.88;7.65;;;;;;;1.96;100.00;100413.16;5129331;27;20032;-59
2023/03/06 07:36:33;;;;;;;13.90;8.20;;;;;;;2.01;100.00;100420.78;5124425;27;20039;-59
2023/03/06 07:39:03;;;;;;;12.63;7.60;;;;;;;2.00;100.00;100419.09;5117620;27;20035;-59
2023/03/06 07:41:32;;;;;;;12.88;7.55;;;;;;;2.05;100.00;100417.19;5123108;27;20043;-59
2023/03/06 07:44:00;;;;;;;12.35;7.45;;;;;;;2.09;100.00;100410.97;5130834;27;20051;-59
2023/03/06 07:46:28;;;;;;;10.43;6.40;;;;;;;2.10;100.00;100423.06;5118852;27;20043;-59
2023/03/06 07:48:58;;;;;;;11.55;7.07;;;;;;;2.12;100.00;100423.81;5128695;27;20121;-59
2023/03/06 07:51:26;;;;;;;11.68;6.93;;;;;;;2.17;100.00;100424.50;5128067;27;20032;-59
2023/03/06 07:53:54;;;;;;;11.60;6.35;;;;;;;2.21;100.00;100417.47;5123013;27;20122;-52
2023/03/06 07:56:23;;;;;;;10.75;6.20;;;;;;;2.16;100.00;100425.41;5124957;27;20070;-54
2023/03/06 07:58:51;;;;;;;10.30;5.85;;;;;;;2.23;100.00;100430.38;5121456;27;20035;-52
2023/03/06 08:01:22;;;;;;;12.65;5.95;;;;;;;2.25;100.00;100424.25;5123655;27;20103;-50
2023/03/06 08:03:50;;;;;;;9.77;5.80;;;;;;;2.28;100.00;100429.31;5124433;27;20051;-51
2023/03/06 08:06:24;;;;;;;11.70;5.72;;;;;;;2.32;100.00;100425.69;5117284;27;20035;-51
2023/03/06 08:08:54;;;;;;;11.02;4.63;;;;;;;2.39;100.00;100426.31;5123916;27;20054;-51
2023/03/06 08:11:24;;;;;;;10.68;5.35;;;;;;;2.48;100.00;100431.16;5122869;27;20091;-49
2023/03/06 08:13:53;;;;;;;9.32;4.80;;;;;;;2.57;100.00;100429.13;5121458;27;20048;-52
2023/03/06 08:16:26;;;;;;;8.27;4.77;;;;;;;2.70;100.00;100430.34;5125174;27;20035;-51
2023/03/06 08:18:55;;;;;;;11.70;5.00;;;;;;;2.72;100.00;100419.88;5124758;27;20047;-52
2023/03/06 08:21:27;;;;;;;8.20;4.15;;;;;;;2.83;100.00;100421.13;5125948;27;20047;-48
2023/03/06 08:23:56;;;;;;;8.85;4.82;;;;;;;2.85;100.00;100428.88;5125380;27;20051;-52
2023/03/06 08:26:25;;;;;;;6.57;3.72;;;;;;;3.16;100.00;100425.91;5129810;27;20126;-50
2023/03/06 08:28:54;;;;;;;6.32;2.85;;;;;;;3.35;100.00;100431.19;5128161;27;20533;-50
2023/03/06 08:31:26;;;;;;;7.07;2.88;;;;;;;3.53;100.00;100428.69;5121973;27;20578;-49
2023/03/06 08:33:59;;;;;;;5.63;2.33;;;;;;;3.62;100.00;100432.69;5119834;27;20071;-49
2023/03/06 08:36:32;;;;;;;4.78;2.28;;;;;;;3.68;100.00;100427.22;5120147;27;20054;-50
2023/03/06 08:39:01;;;;;;;5.95;2.10;;;;;;;3.91;100.00;100430.56;5119074;27;20122;-51
2023/03/06 08:41:29;;;;;;;4.93;2.00;;;;;;;4.01;100.00;100424.06;5123606;27;20114;-52
2023/03/06 08:43:58;;;;;;;4.65;2.10;;;;;;;4.33;100.00;100438.22;5122135;27;20042;-49
2023/03/06 08:46:27;;;;;;;2.83;1.75;;;;;;;4.45;100.00;100436.81;5120200;27;20182;-48
2023/03/06 08:48:56;;;;;;;4.00;2.25;;;;;;;4.50;100.00;100437.44;5122332;27;20039;-48
2023/03/06 08:51:25;;;;;;;4.75;2.00;;;;;;;4.80;100.00;100449.97;5123206;27;20559;-51
2023/03/06 08:53:56;;;;;;;4.53;1.55;;;;;;;4.90;100.00;100448.59;5117830;27;20043;-50
2023/03/06 08:56:25;;;;;;;4.00;1.40;;;;;;;4.96;100.00;100442.22;5119356;27;20051;-50
2023/03/06 08:58:54;;;;;;;3.33;1.30;;;;;;;4.75;100.00;100449.34;5133327;27;20051;-49
2023/03/06 09:01:24;;;;;;;2.08;1.15;;;;;;;4.69;100.00;100449.59;5133995;27;20043;-49
2023/03/06 09:03:57;;;;;;;3.33;1.58;;;;;;;4.79;100.00;100450.88;5128928;27;20040;-50
2023/03/06 09:06:29;;;;;;;4.90;1.50;;;;;;;4.80;100.00;100449.09;5129695;27;20078;-49
2023/03/06 09:08:59;;;;;;;2.53;1.20;;;;;;;4.90;100.00;100447.75;5130329;27;20054;-51
2023/03/06 09:11:28;;;;;;;2.85;1.73;;;;;;;4.75;100.00;100449.34;5129527;27;20042;-53
2023/03/06 09:13:57;;;;;;;2.40;1.20;;;;;;;4.79;100.00;100445.66;5130045;27;20497;-50
2023/03/06 09:16:25;;;;;;;2.90;1.15;;;;;;;4.75;100.00;100454.53;5129791;27;20470;-50
2023/03/06 09:18:53;;;;;;;2.05;1.17;;;;;;;4.66;100.00;100444.53;5129981;27;20635;-50
2023/03/06 09:21:22;;;;;;;2.78;1.05;;;;;;;4.80;100.00;100444.75;5129115;27;20055;-52
2023/03/06 09:23:50;;;;;;;2.53;1.10;;;;;;;4.98;100.00;100434.38;5132189;27;20043;-52
2023/03/06 09:26:20;;;;;;;1.42;1.00;;;;;;;5.05;100.00;100435.75;5133223;27;20039;-49
2023/03/06 09:28:50;;;;;;;2.42;1.00;;;;;;;5.14;100.00;100432.72;5130379;27;20082;-49
2023/03/06 09:31:20;;;;;;;2.45;1.08;;;;;;;5.36;100.00;100432.47;5129484;27;20049;-51
2023/03/06 09:33:48;;;;;;;1.67;1.10;;;;;;;5.54;100.00;100430.72;5131346;27;20490;-49
2023/03/06 09:36:19;;;;;;;2.20;0.90;;;;;;;5.70;100.00;100422.09;5133715;27;20486;-50
2023/03/06 09:38:48;;;;;;;4.20;1.25;;;;;;;5.83;100.00;100424.91;5130548;27;20043;-52
2023/03/06 09:41:25;;;;;;;3.67;1.02;;;;;;;6.00;100.00;100419.69;5130293;28;20413;-52
2023/03/06 09:43:56;;;;;;;1.75;0.90;;;;;;;6.11;100.00;100421.75;5130321;27;20103;-50
2023/03/06 09:46:31;;;;;;;1.38;0.90;;;;;;;6.18;100.00;100427.47;5130442;27;20053;-49
2023/03/06 09:49:24;;;;;;;1.08;0.80;;;;;;;6.30;100.00;100426.81;5128862;28;20506;-50
2023/03/06 09:51:56;;;;;;;;;;;;;;;6.43;100.00;100422.63;5134009;27;20441;-49
2023/03/06 09:54:33;;;;;;;1.73;0.90;;;;;;;6.71;100.00;100425.50;5133408;28;19926;-48
2023/03/06 09:57:03;;;;;;;0.90;0.80;;;;;;;6.86;100.00;100424.63;5133164;27;20047;-49
2023/03/06 09:59:32;;;;;;;1.08;0.80;;;;;;;7.02;100.00;100422.00;5133161;27;20100;-48
2023/03/06 10:02:08;;;;;;;1.23;0.70;;;;;;;7.15;100.00;100432.59;5133016;28;20074;-50
2023/03/06 10:04:41;;;;;;;2.88;1.08;;;;;;;6.90;100.00;100428.75;5131178;27;20043;-51
2023/03/06 10:07:15;;;;;;;0.60;0.60;;;;;;;6.76;100.00;100431.28;5129525;28;20407;-47
2023/03/06 10:09:46;;;;;;;;;;;;;;;6.89;100.00;100426.22;5132153;27;20074;-49
2023/03/06 10:12:23;;;;;;;1.50;0.80;;;;;;;7.21;100.00;100429.63;5132988;28;19919;-48
2023/03/06 10:15:07;;;;;;;1.48;0.70;;;;;;;7.30;100.00;100430.03;5131873;27;20043;-48
2023/03/06 10:17:37;;;;;;;1.17;0.50;;;;;;;7.41;100.00;100432.84;5129214;28;20100;-47
2023/03/06 10:20:16;;;;;;;0.93;0.70;;;;;;;7.75;100.00;100428.25;5128713;28;20051;-49
2023/03/06 10:22:52;;;;;;;1.52;0.80;;;;;;;7.71;100.00;100430.19;5128464;28;20055;-51
2023/03/06 10:25:37;;;;;;;1.08;0.77;;;;;;;7.47;100.00;100434.25;5132922;27;20074;-48
2023/03/06 10:28:15;;;;;;;0.90;0.70;;;;;;;7.36;100.00;100427.03;5131698;28;20516;-48
2023/03/06 10:30:51;;;;;;;0.93;0.55;;;;;;;7.83;100.00;100431.25;5129254;27;20520;-49
2023/03/06 10:33:34;;;;;;;2.50;0.50;;;;;;;8.06;100.00;100429.84;5128542;28;20054;-48
2023/03/06 10:36:02;;;;;;;0.50;0.50;;;;;;;8.17;98.02;100433.59;5129936;27;20108;-48
2023/03/06 10:38:36;;;;;;;1.70;0.60;;;;;;;8.20;99.21;100429.00;5130677;27;20042;-51
2023/03/06 10:41:07;;;;;;;0.68;0.50;;;;;;;8.55;99.28;100431.22;5130064;27;20167;-50
2023/03/06 10:43:39;;;;;;;1.00;0.60;;;;;;;8.35;97.55;100432.44;5134720;27;20118;-49
2023/03/06 10:46:08;;;;;;;1.80;0.60;;;;;;;8.85;95.50;100431.97;5136646;27;20070;-50
2023/03/06 10:48:41;;;;;;;0.43;0.43;;;;;;;9.18;93.49;100425.50;5136451;27;20039;-51
2023/03/06 10:51:17;;;;;;;1.35;0.40;;;;;;;9.40;88.68;100430.97;5136514;27;20031;-52
2023/03/06 10:53:52;;;;;;;1.08;0.50;;;;;;;9.53;83.49;100438.91;5133509;27;20050;-48
2023/03/06 10:56:28;;;;;;;0.80;0.43;;;;;;;9.11;80.90;100433.75;5133472;27;20039;-48
2023/03/06 10:59:11;;;;;;;0.95;0.50;;;;;;;9.04;81.06;100440.34;5136320;27;20383;-48
2023/03/06 11:01:40;;;;;;;0.60;0.47;;;;;;;9.60;85.89;100442.78;5136335;27;20043;-48
2023/03/06 11:04:24;;;;;;;0.50;0.50;;;;;;;9.89;80.94;100428.63;5133241;27;20087;-51
2023/03/06 11:07:06;;;;;;;1.63;0.63;;;;;;;9.94;81.43;100429.16;5130966;27;20121;-49
2023/03/06 11:09:35;;;;;;;1.88;0.60;;;;;;;10.14;79.11;100425.97;5136106;27;20068;-47
2023/03/06 11:12:25;;;;;;;1.92;0.68;;;;;;;10.08;78.03;100436.91;5133807;27;20050;-49
2023/03/06 11:15:17;;;;;;;1.00;0.60;;;;;;;10.44;77.96;100421.31;5132326;27;20443;-51
2023/03/06 11:17:55;;;;;;;1.70;0.60;;;;;;;10.55;77.51;100417.91;5133364;27;20043;-49
2023/03/06 11:20:26;;;;;;;1.45;0.60;;;;;;;10.73;75.25;100419.22;5134508;27;20498;-48
2023/03/06 11:23:08;;;;;;;0.57;0.50;;;;;;;10.90;75.18;100420.59;5135582;27;20089;-48
2023/03/06 11:25:41;;;;;;;2.10;0.60;;;;;;;11.14;72.03;100414.50;5132598;27;20047;-49
2023/03/06 11:28:20;;;;;;;1.65;0.50;;;;;;;11.65;70.97;100414.13;5134283;27;20443;-51
2023/03/06 11:30:58;;;;;;;0.75;0.50;;;;;;;11.90;67.44;100417.53;5136057;27;20047;-49
2023/03/06 11:33:30;;;;;;;2.50;0.60;;;;;;;11.97;64.67;100407.38;5135453;27;20467;-50